createdAt,value
2022-12-12T00:01:28.444Z,38.85
2022-12-12T00:03:57.140Z,54.08
2022-12-12T00:06:25.512Z,51.63
2022-12-12T00:08:53.968Z,59.03
2022-12-12T00:11:23.906Z,66.28
2022-12-12T00:13:53.386Z,56.25
2022-12-12T00:16:22.125Z,65.28
2022-12-12T00:18:50.433Z,47.25
2022-12-12T00:21:23.297Z,45.88
2022-12-12T00:23:52.472Z,44.83
2022-12-12T00:26:30.610Z,39.35
2022-12-12T00:29:00.133Z,40.67
2022-12-12T00:31:28.895Z,50.50
2022-12-12T00:33:57.654Z,43.08
2022-12-12T00:36:29.075Z,46.35
2022-12-12T00:38:58.643Z,53.22
2022-12-12T00:41:27.248Z,57.83
2022-12-12T00:43:55.617Z,51.92
2022-12-12T00:46:26.418Z,53.70
2022-12-12T00:48:56.987Z,45.28
2022-12-12T00:51:27.304Z,54.92
2022-12-12T00:53:58.199Z,54.80
2022-12-12T00:56:27.400Z,50.83
2022-12-12T00:58:55.852Z,48.40
2022-12-12T01:01:28.001Z,57.30
2022-12-12T01:03:56.652Z,74.47
2022-12-12T01:06:25.041Z,77.45
2022-12-12T01:08:54.027Z,81.13
2022-12-12T01:11:23.297Z,81.72
2022-12-12T01:13:53.794Z,73.10
2022-12-12T01:16:23.704Z,78.20
2022-12-12T01:18:52.355Z,71.25
2022-12-12T01:21:21.578Z,60.40
2022-12-12T01:23:50.114Z,57.53
2022-12-12T01:26:21.524Z,69.32
2022-12-12T01:28:50.334Z,54.58
2022-12-12T01:31:19.229Z,47.67
2022-12-12T01:33:47.730Z,48.97
2022-12-12T01:36:18.802Z,39.42
2022-12-12T01:38:48.657Z,53.35
2022-12-12T01:41:18.277Z,43.97
2022-12-12T01:43:47.278Z,44.22
2022-12-12T01:46:37.016Z,40.38
2022-12-12T01:49:19.538Z,42.83
2022-12-12T01:51:50.507Z,45.85
2022-12-12T01:54:24.016Z,47.78
2022-12-12T01:56:53.448Z,55.72
2022-12-12T01:59:25.157Z,35.85
2022-12-12T02:01:54.914Z,39.65
2022-12-12T02:04:24.409Z,39.25
2022-12-12T02:06:53.624Z,50.45
2022-12-12T02:09:23.312Z,45.35
2022-12-12T02:11:55.260Z,48.90
2022-12-12T02:14:33.730Z,54.28
2022-12-12T02:17:02.266Z,96.32
2022-12-12T02:19:51.559Z,70.43
2022-12-12T02:22:54.530Z,105.32
2022-12-12T02:25:28.919Z,83.20
2022-12-12T02:28:41.039Z,85.93
2022-12-12T02:31:22.086Z,76.80
2022-12-12T02:34:16.649Z,109.68
2022-12-12T02:36:57.581Z,101.55
2022-12-12T02:39:38.691Z,106.80
2022-12-12T02:42:27.229Z,99.32
2022-12-12T02:45:10.380Z,88.72
2022-12-12T02:47:45.822Z,88.03
2022-12-12T02:50:26.984Z,83.97
2022-12-12T02:52:55.276Z,96.57
2022-12-12T02:55:23.387Z,88.63
2022-12-12T02:57:52.740Z,85.28
2022-12-12T03:00:21.192Z,76.25
2022-12-12T03:03:08.109Z,87.28
2022-12-12T03:05:44.667Z,72.53
2022-12-12T03:08:46.167Z,56.22
2022-12-12T03:11:24.026Z,51.30
2022-12-12T03:13:52.327Z,58.25
2022-12-12T03:16:26.322Z,55.65
2022-12-12T03:19:16.921Z,61.55
2022-12-12T03:21:53.326Z,47.80
2022-12-12T03:24:35.297Z,51.58
2022-12-12T03:27:13.919Z,52.97
2022-12-12T03:29:47.536Z,57.63
2022-12-12T03:32:24.204Z,56.38
2022-12-12T03:35:07.195Z,51.85
2022-12-12T03:37:39.917Z,67.90
2022-12-12T03:40:30.202Z,57.65
2022-12-12T03:43:05.809Z,57.15
2022-12-12T03:45:41.702Z,63.75
2022-12-12T03:48:21.742Z,52.20
2022-12-12T03:50:55.612Z,53.28
2022-12-12T03:53:31.331Z,60.20
2022-12-12T03:56:20.718Z,60.25
2022-12-12T03:58:51.912Z,49.60
2022-12-12T04:01:24.196Z,53.13
2022-12-12T04:04:28.842Z,51.75
2022-12-12T04:07:14.904Z,61.65
2022-12-12T04:09:43.858Z,58.33
2022-12-12T04:12:42.578Z,52.67
2022-12-12T04:15:32.131Z,64.95
2022-12-12T04:18:28.031Z,58.42
2022-12-12T04:21:17.757Z,58.40
2022-12-12T04:24:00.602Z,51.80
2022-12-12T04:26:38.056Z,57.03
2022-12-12T04:29:28.233Z,65.25
2022-12-12T04:31:59.521Z,52.25
2022-12-12T04:34:40.028Z,58.13
2022-12-12T04:37:12.012Z,59.60
2022-12-12T04:39:43.681Z,54.17
2022-12-12T04:42:15.899Z,59.17
2022-12-12T04:44:45.492Z,68.03
2022-12-12T04:47:16.273Z,53.85
2022-12-12T04:49:47.480Z,60.33
2022-12-12T04:52:18.639Z,60.77
2022-12-12T04:55:00.946Z,62.70
2022-12-12T05:00:00.921Z,58.63
2022-12-12T05:02:39.090Z,65.90
2022-12-12T05:05:25.229Z,68.35
2022-12-12T05:08:03.865Z,68.78
2022-12-12T05:10:33.046Z,70.18
2022-12-12T05:13:02.109Z,71.63
2022-12-12T05:15:30.832Z,62.08
2022-12-12T05:18:08.179Z,63.40
2022-12-12T05:20:36.557Z,73.07
2022-12-12T05:23:05.421Z,64.40
2022-12-12T05:25:34.125Z,59.33
2022-12-12T05:28:02.533Z,55.85
2022-12-12T05:30:30.722Z,58.45
2022-12-12T05:32:59.134Z,64.30
2022-12-12T05:35:28.203Z,53.90
2022-12-12T05:37:56.387Z,54.63
2022-12-12T05:40:24.844Z,64.65
2022-12-12T05:42:53.059Z,54.67
2022-12-12T05:45:21.355Z,53.97
2022-12-12T05:47:49.769Z,62.20
2022-12-12T05:50:18.100Z,55.95
2022-12-12T05:52:46.393Z,61.35
2022-12-12T05:55:15.408Z,54.28
2022-12-12T05:57:43.643Z,54.58
2022-12-12T06:00:12.233Z,55.05
2022-12-12T06:02:40.828Z,66.93
2022-12-12T06:05:09.511Z,59.33
2022-12-12T06:07:37.589Z,48.65
2022-12-12T06:10:06.704Z,56.50
2022-12-12T06:12:34.913Z,54.15
2022-12-12T06:15:03.409Z,66.43
2022-12-12T06:17:33.493Z,77.93
2022-12-12T06:20:02.231Z,83.90
2022-12-12T06:22:30.609Z,88.50
2022-12-12T06:24:58.885Z,103.13
2022-12-12T06:27:27.093Z,107.78
2022-12-12T06:29:55.426Z,114.03
2022-12-12T06:32:23.696Z,92.78
2022-12-12T06:34:51.924Z,72.28
2022-12-12T06:37:20.432Z,78.55
2022-12-12T06:39:48.627Z,83.93
2022-12-12T06:42:16.824Z,84.97
2022-12-12T06:44:45.647Z,90.55
2022-12-12T06:47:14.041Z,87.78
2022-12-12T06:49:42.486Z,86.90
2022-12-12T06:52:10.726Z,82.97
2022-12-12T06:54:39.001Z,69.82
2022-12-12T06:57:07.289Z,55.63
2022-12-12T06:59:35.536Z,64.97
2022-12-12T07:02:04.159Z,58.05
2022-12-12T07:04:32.596Z,49.92
2022-12-12T07:07:00.833Z,56.03
2022-12-12T07:09:29.110Z,57.30
2022-12-12T07:11:57.673Z,59.33
2022-12-12T07:14:25.927Z,68.63
2022-12-12T07:16:57.302Z,67.55
2022-12-12T07:19:25.616Z,72.93
2022-12-12T07:21:53.697Z,73.45
2022-12-12T07:24:22.141Z,70.47
2022-12-12T07:26:50.228Z,94.60
2022-12-12T07:29:18.444Z,95.05
2022-12-12T07:31:47.403Z,105.38
2022-12-12T07:34:15.716Z,81.60
2022-12-12T07:36:44.120Z,78.20
2022-12-12T07:39:15.933Z,87.75
2022-12-12T07:47:00.279Z,74.63
2022-12-12T07:49:29.624Z,63.67
2022-12-12T07:51:57.819Z,67.20
2022-12-12T07:54:25.997Z,69.50
2022-12-12T07:56:54.277Z,61.10
2022-12-12T07:59:22.687Z,56.08
2022-12-12T08:01:50.810Z,59.60
2022-12-12T08:04:19.109Z,51.58
2022-12-12T08:06:47.692Z,57.92
2022-12-12T08:09:15.802Z,56.70
2022-12-12T08:11:46.687Z,48.80
2022-12-12T08:14:15.779Z,62.67
2022-12-12T08:16:44.183Z,57.03
2022-12-12T08:19:12.694Z,54.78
2022-12-12T08:21:41.165Z,49.72
2022-12-12T08:24:13.452Z,37.80
2022-12-12T08:26:42.349Z,39.85
2022-12-12T08:29:13.554Z,44.10
2022-12-12T08:31:43.600Z,51.22
2022-12-12T08:34:12.399Z,79.22
2022-12-12T08:36:40.660Z,66.70
2022-12-12T08:39:11.754Z,68.38
2022-12-12T08:41:43.251Z,60.37
2022-12-12T08:44:13.116Z,51.50
2022-12-12T08:46:42.173Z,57.85
2022-12-12T08:49:11.043Z,57.13
2022-12-12T08:51:40.779Z,56.95
2022-12-12T08:54:09.173Z,60.38
2022-12-12T08:56:37.321Z,60.17
2022-12-12T08:59:05.775Z,60.10
2022-12-12T09:01:34.122Z,59.50
2022-12-12T09:04:03.096Z,67.68
2022-12-12T09:06:31.775Z,61.90
2022-12-12T09:09:00.333Z,78.65
2022-12-12T09:11:28.690Z,66.18
2022-12-12T09:13:57.361Z,68.05
2022-12-12T09:16:27.094Z,70.45
2022-12-12T09:18:55.357Z,52.78
2022-12-12T09:21:23.919Z,98.65
2022-12-12T09:23:52.455Z,68.18
2022-12-12T09:26:20.624Z,65.28
2022-12-12T09:28:50.313Z,66.97
2022-12-12T09:31:19.305Z,54.38
2022-12-12T09:33:47.648Z,68.38
2022-12-12T09:36:16.903Z,68.75
2022-12-12T09:38:46.261Z,63.70
2022-12-12T09:41:18.494Z,51.83
2022-12-12T09:43:58.725Z,63.90
2022-12-12T09:46:51.183Z,71.55
2022-12-12T09:49:39.874Z,66.63
2022-12-12T09:52:31.265Z,53.67
2022-12-12T09:55:23.609Z,72.65
2022-12-12T09:58:27.692Z,74.75
2022-12-12T10:01:13.700Z,70.82
2022-12-12T10:04:04.117Z,76.85
2022-12-12T10:06:58.350Z,71.25
2022-12-12T10:09:41.586Z,78.60
2022-12-12T10:12:15.195Z,68.28
2022-12-12T10:15:00.339Z,58.00
2022-12-12T10:17:48.962Z,60.10
2022-12-12T10:20:29.264Z,69.85
2022-12-12T10:23:22.018Z,69.28
2022-12-12T10:25:53.860Z,56.95
2022-12-12T10:28:25.577Z,61.83
2022-12-12T10:31:21.144Z,62.03
2022-12-12T10:34:08.380Z,80.93
2022-12-12T10:37:09.772Z,64.57
2022-12-12T10:39:54.441Z,57.22
2022-12-12T10:42:25.705Z,58.42
2022-12-12T10:45:08.390Z,62.67
2022-12-12T10:47:36.784Z,53.30
2022-12-12T10:50:33.653Z,50.30
2022-12-12T10:53:05.590Z,56.88
2022-12-12T10:55:58.887Z,56.90
2022-12-12T10:58:29.277Z,65.55
2022-12-12T11:01:03.418Z,56.55
2022-12-12T11:03:39.301Z,52.00
2022-12-12T11:06:12.688Z,56.03
2022-12-12T11:08:57.434Z,63.58
2022-12-12T11:11:28.573Z,59.85
2022-12-12T11:13:59.611Z,50.17
2022-12-12T11:16:32.295Z,71.35
2022-12-12T11:19:11.505Z,69.05
2022-12-12T11:21:40.036Z,76.30
2022-12-12T11:24:13.788Z,52.08
2022-12-12T11:27:05.336Z,69.15
2022-12-12T11:29:49.550Z,58.80
2022-12-12T11:32:25.887Z,56.65
2022-12-12T11:34:58.886Z,54.80
2022-12-12T11:37:37.608Z,66.40
2022-12-12T11:40:18.474Z,74.93
2022-12-12T11:42:47.076Z,55.50
2022-12-12T11:45:15.279Z,58.67
2022-12-12T11:47:45.799Z,65.93
2022-12-12T11:50:29.480Z,52.20
2022-12-12T11:53:00.493Z,71.80
2022-12-12T11:55:43.066Z,62.28
2022-12-12T11:58:27.412Z,72.25
2022-12-12T12:01:16.520Z,53.78
2022-12-12T12:04:08.940Z,50.20
2022-12-12T12:06:54.046Z,46.88
2022-12-12T12:09:52.482Z,40.53
2022-12-12T12:12:56.326Z,48.85
2022-12-12T12:16:13.008Z,58.88
2022-12-12T12:19:00.767Z,55.47
2022-12-12T12:21:57.726Z,48.78
2022-12-12T12:24:41.339Z,58.35
2022-12-12T12:27:19.892Z,47.90
2022-12-12T12:30:42.318Z,52.63
2022-12-12T12:33:32.302Z,61.25
2022-12-12T12:36:23.337Z,53.22
2022-12-12T12:39:11.462Z,54.65
2022-12-12T13:08:42.048Z,48.15
2022-12-12T13:11:22.640Z,46.10
2022-12-12T13:13:52.919Z,66.30
2022-12-12T13:16:27.235Z,56.83
2022-12-12T13:19:24.870Z,62.15
2022-12-12T13:22:14.585Z,60.92
2022-12-12T13:25:06.210Z,62.40
2022-12-12T13:27:39.816Z,65.93
2022-12-12T13:30:26.805Z,63.53
2022-12-12T13:32:58.194Z,66.47
2022-12-12T13:35:35.565Z,59.03
2022-12-12T13:38:04.539Z,66.80
2022-12-12T13:40:42.027Z,49.28
2022-12-12T14:12:17.977Z,71.13
2022-12-12T14:15:08.282Z,50.00
2022-12-12T14:17:42.867Z,63.47
2022-12-12T14:20:36.462Z,67.07
2022-12-12T14:23:23.590Z,61.70
2022-12-12T14:25:52.401Z,63.20
2022-12-12T14:28:33.176Z,78.85
2022-12-12T14:31:16.502Z,59.28
2022-12-12T14:34:26.645Z,67.50
2022-12-12T14:37:03.907Z,58.92
2022-12-12T14:40:02.051Z,52.25
2022-12-12T14:43:21.778Z,63.13
2022-12-12T14:45:50.557Z,74.88
2022-12-12T14:48:30.319Z,57.55
2022-12-12T14:51:11.473Z,99.15
2022-12-12T14:53:39.785Z,64.25
2022-12-12T14:56:16.905Z,63.83
2022-12-12T14:59:20.302Z,60.63
2022-12-12T15:02:00.524Z,57.08
2022-12-12T15:04:33.320Z,66.45
2022-12-12T15:07:21.998Z,64.43
2022-12-12T15:09:50.978Z,57.40
2022-12-12T15:12:22.804Z,56.45
2022-12-12T15:14:51.124Z,64.25
2022-12-12T15:17:23.423Z,57.00
2022-12-12T15:20:13.661Z,58.72
2022-12-12T15:23:07.120Z,59.28
2022-12-12T15:25:58.422Z,50.67
2022-12-12T15:28:27.072Z,58.92
2022-12-12T15:30:57.432Z,46.53
2022-12-12T15:33:27.536Z,64.07
2022-12-12T15:36:02.711Z,56.20
2022-12-12T15:38:33.039Z,59.45
2022-12-12T15:41:11.172Z,57.35
2022-12-12T15:43:42.392Z,57.75
2022-12-12T15:46:15.192Z,49.45
2022-12-12T15:48:48.686Z,58.35
2022-12-12T15:51:24.376Z,55.50
2022-12-12T15:53:54.883Z,67.15
2022-12-12T15:56:24.972Z,44.33
2022-12-12T15:59:09.945Z,52.58
2022-12-12T16:01:38.561Z,61.92
2022-12-12T16:04:23.936Z,56.38
2022-12-12T16:06:52.468Z,48.33
2022-12-12T16:09:25.501Z,49.42
2022-12-12T16:11:57.577Z,48.50
2022-12-12T16:14:39.523Z,47.72
2022-12-12T16:17:18.981Z,55.28
2022-12-12T16:19:54.769Z,51.58
2022-12-12T16:22:34.749Z,55.08
2022-12-12T16:25:27.060Z,68.20
2022-12-12T16:28:10.609Z,58.13
2022-12-12T16:30:44.069Z,48.22
2022-12-12T16:33:29.497Z,60.70
2022-12-12T16:36:00.413Z,49.78
2022-12-12T16:41:42.363Z,64.30
2022-12-12T16:44:10.621Z,48.85
2022-12-12T16:46:38.726Z,52.72
2022-12-12T16:49:15.047Z,58.97
2022-12-12T16:51:43.582Z,55.20
2022-12-12T16:54:18.403Z,49.97
2022-12-12T16:56:46.788Z,49.67
2022-12-12T16:59:15.035Z,53.05
2022-12-12T17:01:43.318Z,40.72
2022-12-12T17:04:21.050Z,51.65
2022-12-12T17:06:50.130Z,64.70
2022-12-12T17:11:57.449Z,65.80
2022-12-12T17:14:26.023Z,67.28
2022-12-12T17:16:55.719Z,63.53
2022-12-12T17:19:27.369Z,84.53
2022-12-12T17:21:55.490Z,66.53
2022-12-12T17:24:23.639Z,53.47
2022-12-12T17:26:52.070Z,58.95
2022-12-12T17:29:21.402Z,74.30
2022-12-12T17:31:49.767Z,70.63
2022-12-12T17:34:18.107Z,69.07
2022-12-12T17:36:46.251Z,90.70
2022-12-12T17:39:14.743Z,87.45
2022-12-12T17:41:42.826Z,75.10
2022-12-12T17:44:11.222Z,80.40
2022-12-12T17:46:39.349Z,90.35
2022-12-12T17:49:07.764Z,72.70
2022-12-12T17:51:35.932Z,82.40
2022-12-12T17:54:04.475Z,88.13
2022-12-12T17:56:32.710Z,58.72
2022-12-12T17:59:01.066Z,75.40
2022-12-12T18:01:30.983Z,54.38
2022-12-12T18:04:00.335Z,70.38
2022-12-12T18:06:31.258Z,77.35
2022-12-12T18:09:03.335Z,98.80
2022-12-12T18:11:33.573Z,91.63
2022-12-12T18:14:03.672Z,68.57
2022-12-12T18:16:33.981Z,79.30
2022-12-12T18:19:03.652Z,57.67
2022-12-12T18:24:24.960Z,100.05
2022-12-12T18:26:57.912Z,110.93
2022-12-12T18:29:27.299Z,88.85
2022-12-12T18:31:55.604Z,134.50
2022-12-12T18:34:24.125Z,86.20
2022-12-12T18:36:52.618Z,63.03
2022-12-12T18:39:21.335Z,58.92
2022-12-12T18:41:49.583Z,63.50
2022-12-12T18:44:18.006Z,98.15
2022-12-12T18:46:49.460Z,104.72
2022-12-12T18:49:17.817Z,101.80
2022-12-12T18:51:47.750Z,83.57
2022-12-12T18:54:17.047Z,82.93
2022-12-12T18:56:46.949Z,123.25
2022-12-12T18:59:16.015Z,98.85
2022-12-12T19:01:44.688Z,77.75
2022-12-12T19:04:20.919Z,111.20
2022-12-12T19:09:14.428Z,97.28
2022-12-12T19:11:43.968Z,79.05
2022-12-12T19:14:13.979Z,71.50
2022-12-12T19:16:43.416Z,94.97
2022-12-12T19:19:12.421Z,77.07
2022-12-12T19:21:42.496Z,74.88
2022-12-12T19:24:11.592Z,65.97
2022-12-12T19:26:42.209Z,70.85
2022-12-12T19:29:19.088Z,98.22
2022-12-12T19:31:48.168Z,80.65
2022-12-12T19:34:17.361Z,98.80
2022-12-12T19:36:45.926Z,91.45
2022-12-12T19:39:14.314Z,91.57
2022-12-12T19:41:44.107Z,91.55
2022-12-12T19:44:13.398Z,97.63
2022-12-12T19:46:44.985Z,94.55
2022-12-12T19:49:15.754Z,81.65
2022-12-12T19:51:45.039Z,83.28
2022-12-12T19:54:20.667Z,101.28
2022-12-12T19:56:49.200Z,81.32
2022-12-12T19:59:20.210Z,89.03
2022-12-12T20:01:48.678Z,84.63
2022-12-12T20:04:23.108Z,86.53
2022-12-12T20:06:52.148Z,77.93
2022-12-12T20:09:24.618Z,85.22
2022-12-12T20:11:53.770Z,87.38
2022-12-12T20:14:24.643Z,72.82
2022-12-12T20:16:54.046Z,95.60
2022-12-12T20:19:24.206Z,85.25
2022-12-12T20:22:01.182Z,96.20
2022-12-12T20:24:33.931Z,88.68
2022-12-12T20:27:02.864Z,82.43
2022-12-12T20:29:31.371Z,75.40
2022-12-12T20:32:00.018Z,66.00
2022-12-12T20:34:29.582Z,70.95
2022-12-12T20:36:57.999Z,89.00
2022-12-12T20:39:26.487Z,82.82
2022-12-12T20:41:55.323Z,89.45
2022-12-12T20:44:24.299Z,82.90
2022-12-12T20:46:53.126Z,63.90
2022-12-12T20:49:22.208Z,63.28
2022-12-12T20:51:55.819Z,73.57
2022-12-12T20:54:27.176Z,74.32
2022-12-12T20:56:56.342Z,119.63
2022-12-12T20:59:25.664Z,97.43
2022-12-12T21:01:54.654Z,114.95
2022-12-12T21:04:23.813Z,109.15
2022-12-12T21:06:52.449Z,99.30
2022-12-12T21:09:24.959Z,99.38
2022-12-12T21:11:58.596Z,116.63
2022-12-12T21:14:28.544Z,82.97
2022-12-12T21:16:57.039Z,88.28
2022-12-12T21:19:25.732Z,113.00
2022-12-12T21:21:54.526Z,92.25
2022-12-12T21:24:22.957Z,99.95
2022-12-12T21:26:51.846Z,98.85
2022-12-12T21:29:20.376Z,106.03
2022-12-12T21:31:51.942Z,128.27
2022-12-12T21:34:24.394Z,176.30
2022-12-12T21:39:26.662Z,191.77
2022-12-12T21:41:55.725Z,142.85
2022-12-12T21:44:24.530Z,92.50
2022-12-12T21:46:53.315Z,73.03
2022-12-12T21:49:21.916Z,86.78
2022-12-12T21:51:50.289Z,147.82
2022-12-12T21:54:18.781Z,264.75
2022-12-12T21:56:47.465Z,235.52
2022-12-12T21:59:16.109Z,234.13
2022-12-12T22:01:44.677Z,171.20
2022-12-12T22:04:14.201Z,222.63
2022-12-12T22:06:45.954Z,223.18
2022-12-12T22:09:15.322Z,90.95
2022-12-12T22:11:50.535Z,64.55
2022-12-12T22:14:21.820Z,56.90
2022-12-12T22:16:50.401Z,111.28
2022-12-12T22:19:20.532Z,85.90
2022-12-12T22:21:49.464Z,88.60
2022-12-12T22:24:18.824Z,75.70
2022-12-12T22:26:50.722Z,97.80
2022-12-12T22:29:20.845Z,193.70
2022-12-12T22:31:49.580Z,199.00
2022-12-12T22:34:21.166Z,246.10
2022-12-12T22:36:49.638Z,224.82
2022-12-12T22:39:22.013Z,173.30
2022-12-12T22:41:50.427Z,182.15
2022-12-12T22:44:20.770Z,327.20
2022-12-12T22:46:50.937Z,198.57
2022-12-12T22:49:21.994Z,126.65
2022-12-12T22:51:51.242Z,251.40
2022-12-12T22:54:20.074Z,283.38
2022-12-12T22:56:48.281Z,208.05
2022-12-12T22:59:16.755Z,312.35
2022-12-12T23:01:44.991Z,296.73
2022-12-12T23:04:14.576Z,233.82
2022-12-12T23:06:44.204Z,192.93
2022-12-12T23:09:21.100Z,148.15
2022-12-12T23:11:50.300Z,198.45
2022-12-12T23:14:21.264Z,254.98
2022-12-12T23:16:51.096Z,89.57
2022-12-12T23:19:23.726Z,81.07
2022-12-12T23:21:52.604Z,124.40
2022-12-12T23:24:20.949Z,76.90
2022-12-12T23:26:52.279Z,147.25
2022-12-12T23:29:21.161Z,294.13
2022-12-12T23:31:49.982Z,305.10
2022-12-12T23:34:21.551Z,244.57
2022-12-12T23:36:51.034Z,213.32
2022-12-12T23:39:19.596Z,220.85
2022-12-12T23:41:48.544Z,288.83
2022-12-12T23:44:18.502Z,315.73
2022-12-12T23:46:48.582Z,222.43
2022-12-12T23:49:19.960Z,127.80
2022-12-12T23:51:50.838Z,192.65
2022-12-12T23:54:22.068Z,193.85
2022-12-12T23:56:51.653Z,208.87
2022-12-12T23:59:21.895Z,286.45
